Time,TemperatureF,DewpointF,PressureIn,WindDirection,WindDirectionDegrees,WindSpeedMPH,WindSpeedGustMPH,Humidity,HourlyPrecipIn,Conditions,Clouds,dailyrainin,SoftwareType,DateUTC
2013-04-02 00:05:00,52.7,48.0,29.77,ENE,67,0.0,-999.0,84,-99.99,,,0.00,Acu-Link.com,2013-04-02 04:05:00,
2013-04-02 00:21:00,52.3,48.2,29.78,West,270,0.0,-999.0,86,-99.99,,,0.00,Acu-Link.com,2013-04-02 04:21:00,
2013-04-02 00:36:00,52.0,48.3,29.78,West,270,0.0,-999.0,87,-99.99,,,0.00,Acu-Link.com,2013-04-02 04:36:00,
2013-04-02 01:21:00,52.5,45.8,29.79,West,270,1.1,-999.0,78,-99.99,,,0.00,Acu-Link.com,2013-04-02 05:21:00,
2013-04-02 01:36:00,52.5,45.5,29.79,ENE,67,0.0,-999.0,77,-99.99,,,0.00,Acu-Link.com,2013-04-02 05:36:00,
2013-04-02 01:51:00,52.7,43.9,29.79,NE,45,0.0,-999.0,72,-99.99,,,0.00,Acu-Link.com,2013-04-02 05:51:00,
2013-04-02 02:06:00,52.7,43.9,29.80,NNW,337,0.0,-999.0,72,-99.99,,,0.00,Acu-Link.com,2013-04-02 06:06:00,
2013-04-02 02:21:00,52.3,44.3,29.80,West,270,0.0,-999.0,74,-99.99,,,0.00,Acu-Link.com,2013-04-02 06:21:00,
2013-04-02 02:37:00,51.8,44.8,29.81,NE,45,0.0,-999.0,77,-99.99,,,0.00,Acu-Link.com,2013-04-02 06:37:00,
2013-04-02 02:52:00,51.3,45.3,29.81,NNW,337,0.0,-999.0,80,-99.99,,,0.00,Acu-Link.com,2013-04-02 06:52:00,
2013-04-02 03:07:00,50.7,46.4,29.81,South,180,0.0,-999.0,85,-99.99,,,0.00,Acu-Link.com,2013-04-02 07:07:00,
2013-04-02 03:22:00,50.2,45.9,29.81,SW,225,0.0,-999.0,85,-99.99,,,0.00,Acu-Link.com,2013-04-02 07:22:00,
2013-04-02 03:37:00,49.6,45.3,29.81,East,90,0.0,-999.0,85,-99.99,,,0.00,Acu-Link.com,2013-04-02 07:37:00,
2013-04-02 03:52:00,49.1,45.7,29.81,SW,225,0.0,-999.0,88,-99.99,,,0.00,Acu-Link.com,2013-04-02 07:52:00,
2013-04-02 04:07:00,48.7,45.6,29.81,NNE,22,0.0,-999.0,89,-99.99,,,0.00,Acu-Link.com,2013-04-02 08:07:00,
2013-04-02 04:23:00,48.6,44.9,29.81,NNE,22,0.0,-999.0,87,-99.99,,,0.00,Acu-Link.com,2013-04-02 08:23:00,
2013-04-02 04:38:00,47.8,43.5,29.82,NE,45,0.0,-999.0,85,-99.99,,,0.00,Acu-Link.com,2013-04-02 08:38:00,
2013-04-02 04:53:00,47.5,44.4,29.83,North,0,0.0,-999.0,89,-99.99,,,0.00,Acu-Link.com,2013-04-02 08:53:00,
2013-04-02 05:08:00,47.1,44.6,29.83,North,0,0.0,-999.0,91,-99.99,,,0.00,Acu-Link.com,2013-04-02 09:08:00,
2013-04-02 05:23:00,46.2,44.3,29.83,NE,45,0.0,-999.0,93,-99.99,,,0.00,Acu-Link.com,2013-04-02 09:23:00,
2013-04-02 05:38:00,45.9,43.4,29.84,ENE,67,0.0,-999.0,91,-99.99,,,0.00,Acu-Link.com,2013-04-02 09:38:00,
2013-04-02 05:54:00,45.5,42.4,29.84,ENE,67,0.0,-999.0,89,-99.99,,,0.00,Acu-Link.com,2013-04-02 09:54:00,
2013-04-02 06:09:00,45.0,42.2,29.85,NE,45,0.0,-999.0,90,-99.99,,,0.00,Acu-Link.com,2013-04-02 10:09:00,
2013-04-02 06:24:00,44.8,42.0,29.86,East,90,0.0,-999.0,90,-99.99,,,0.00,Acu-Link.com,2013-04-02 10:24:00,
2013-04-02 06:39:00,44.6,41.6,29.86,NE,45,0.0,-999.0,89,-99.99,,,0.00,Acu-Link.com,2013-04-02 10:39:00,
2013-04-02 06:54:00,44.2,41.5,29.87,NNE,22,0.0,-999.0,90,-99.99,,,0.00,Acu-Link.com,2013-04-02 10:54:00,
2013-04-02 07:09:00,43.9,41.7,29.88,ESE,112,0.0,-999.0,92,-99.99,,,0.00,Acu-Link.com,2013-04-02 11:09:00,
2013-04-02 07:24:00,43.7,41.5,29.88,East,90,0.0,-999.0,92,-99.99,,,0.00,Acu-Link.com,2013-04-02 11:24:00,
2013-04-02 07:39:00,43.9,42.3,29.90,SW,225,0.0,-999.0,94,-99.99,,,0.00,Acu-Link.com,2013-04-02 11:39:00,
2013-04-02 07:54:00,43.9,42.8,29.91,NE,45,0.0,-999.0,96,-99.99,,,0.00,Acu-Link.com,2013-04-02 11:54:00,
2013-04-02 08:10:00,44.4,43.1,29.92,SW,225,0.0,-999.0,95,-99.99,,,0.00,Acu-Link.com,2013-04-02 12:10:00,
2013-04-02 08:25:00,44.8,43.7,29.92,ENE,67,0.0,-999.0,96,-99.99,,,0.00,Acu-Link.com,2013-04-02 12:25:00,
2013-04-02 08:40:00,46.2,45.1,29.92,WSW,247,0.0,-999.0,96,-99.99,,,0.00,Acu-Link.com,2013-04-02 12:40:00,
2013-04-02 08:55:00,47.7,44.3,29.93,WSW,247,0.0,-999.0,88,-99.99,,,0.00,Acu-Link.com,2013-04-02 12:55:00,
2013-04-02 09:10:00,49.6,44.0,29.93,West,270,2.7,-999.0,81,-99.99,,,0.00,Acu-Link.com,2013-04-02 13:10:00,
2013-04-02 09:25:00,53.8,41.5,29.94,ESE,112,1.1,-999.0,63,-99.99,,,0.00,Acu-Link.com,2013-04-02 13:25:00,
2013-04-02 09:40:00,54.7,41.5,29.94,West,270,1.7,-999.0,61,-99.99,,,0.00,Acu-Link.com,2013-04-02 13:40:00,
2013-04-02 09:55:00,56.5,41.5,29.94,ESE,112,0.0,-999.0,57,-99.99,,,0.00,Acu-Link.com,2013-04-02 13:55:00,
2013-04-02 10:10:00,57.7,41.2,29.94,ENE,67,3.7,-999.0,54,-99.99,,,0.00,Acu-Link.com,2013-04-02 14:10:00,
2013-04-02 10:26:00,59.5,41.4,29.93,SW,225,1.7,-999.0,51,-99.99,,,0.00,Acu-Link.com,2013-04-02 14:26:00,
2013-04-02 10:41:00,60.3,41.6,29.94,NNE,22,2.2,-999.0,50,-99.99,,,0.00,Acu-Link.com,2013-04-02 14:41:00,
2013-04-02 11:26:00,63.7,41.4,29.93,NE,45,4.2,-999.0,44,-99.99,,,0.00,Acu-Link.com,2013-04-02 15:26:00,
2013-04-02 11:41:00,64.6,41.0,29.94,NNE,22,3.2,-999.0,42,-99.99,,,0.00,Acu-Link.com,2013-04-02 15:41:00,
2013-04-02 11:56:00,64.6,39.7,29.94,North,0,2.2,-999.0,40,-99.99,,,0.00,Acu-Link.com,2013-04-02 15:56:00,
2013-04-02 12:11:00,65.8,40.8,29.93,WSW,247,2.7,-999.0,40,-99.99,,,0.00,Acu-Link.com,2013-04-02 16:11:00,
2013-04-02 12:26:00,66.6,39.5,29.92,ENE,67,2.2,-999.0,37,-99.99,,,0.00,Acu-Link.com,2013-04-02 16:26:00,
2013-04-02 12:42:00,66.4,38.6,29.92,SW,225,1.7,-999.0,36,-99.99,,,0.00,Acu-Link.com,2013-04-02 16:42:00,
2013-04-02 12:57:00,67.3,38.7,29.91,WSW,247,4.2,-999.0,35,-99.99,,,0.00,Acu-Link.com,2013-04-02 16:57:00,
2013-04-02 13:12:00,68.0,36.2,29.90,West,270,4.2,-999.0,31,-99.99,,,0.00,Acu-Link.com,2013-04-02 17:12:00,
2013-04-02 13:27:00,69.8,37.0,29.89,West,270,2.2,-999.0,30,-99.99,,,0.00,Acu-Link.com,2013-04-02 17:27:00,
2013-04-02 13:42:00,69.1,38.0,29.89,West,270,4.2,-999.0,32,-99.99,,,0.00,Acu-Link.com,2013-04-02 17:42:00,
2013-04-02 13:57:00,71.4,36.6,29.88,West,270,4.2,-999.0,28,-99.99,,,0.00,Acu-Link.com,2013-04-02 17:57:00,
2013-04-02 14:27:00,70.3,34.7,29.87,WSW,247,4.7,-999.0,27,-99.99,,,0.00,Acu-Link.com,2013-04-02 18:27:00,
2013-04-02 14:42:00,70.5,34.9,29.87,West,270,2.2,-999.0,27,-99.99,,,0.00,Acu-Link.com,2013-04-02 18:42:00,
2013-04-02 14:57:00,70.9,37.1,29.86,SW,225,4.7,-999.0,29,-99.99,,,0.00,Acu-Link.com,2013-04-02 18:57:00,
2013-04-02 15:13:00,73.6,39.4,29.85,NNW,337,2.7,-999.0,29,-99.99,,,0.00,Acu-Link.com,2013-04-02 19:13:00,
2013-04-02 15:28:00,73.2,39.0,29.85,SW,225,0.0,-999.0,29,-99.99,,,0.00,Acu-Link.com,2013-04-02 19:28:00,
2013-04-02 15:43:00,72.7,39.5,29.84,WSW,247,1.7,-999.0,30,-99.99,,,0.00,Acu-Link.com,2013-04-02 19:43:00,
2013-04-02 15:58:00,72.1,38.9,29.84,WSW,247,2.7,-999.0,30,-99.99,,,0.00,Acu-Link.com,2013-04-02 19:58:00,
2013-04-02 16:28:00,76.1,40.6,29.83,WSW,247,1.7,-999.0,28,-99.99,,,0.00,Acu-Link.com,2013-04-02 20:28:00,
2013-04-02 16:43:00,74.7,42.0,29.83,WSW,247,2.7,-999.0,31,-99.99,,,0.00,Acu-Link.com,2013-04-02 20:43:00,
2013-04-02 16:58:00,74.3,40.8,29.83,East,90,4.2,-999.0,30,-99.99,,,0.00,Acu-Link.com,2013-04-02 20:58:00,
2013-04-02 17:14:00,73.8,41.3,29.84,WSW,247,3.7,-999.0,31,-99.99,,,0.00,Acu-Link.com,2013-04-02 21:14:00,
2013-04-02 17:29:00,74.5,41.9,29.83,East,90,1.7,-999.0,31,-99.99,,,0.00,Acu-Link.com,2013-04-02 21:29:00,
2013-04-02 17:44:00,77.7,41.0,29.83,NNW,337,1.7,-999.0,27,-99.99,,,0.00,Acu-Link.com,2013-04-02 21:44:00,
2013-04-02 17:59:00,77.9,41.2,29.84,WSW,247,2.7,-999.0,27,-99.99,,,0.00,Acu-Link.com,2013-04-02 21:59:00,
2013-04-02 18:14:00,76.6,41.9,29.84,WNW,292,1.7,-999.0,29,-99.99,,,0.00,Acu-Link.com,2013-04-02 22:14:00,
2013-04-02 18:29:00,73.4,42.5,29.84,WSW,247,3.7,-999.0,33,-99.99,,,0.00,Acu-Link.com,2013-04-02 22:29:00,
2013-04-02 18:59:00,70.9,41.9,29.85,NNE,22,0.0,-999.0,35,-99.99,,,0.00,Acu-Link.com,2013-04-02 22:59:00,
2013-04-02 19:14:00,70.0,41.8,29.84,SW,225,0.0,-999.0,36,-99.99,,,0.00,Acu-Link.com,2013-04-02 23:14:00,
2013-04-02 19:29:00,68.9,42.2,29.84,NNE,22,0.0,-999.0,38,-99.99,,,0.00,Acu-Link.com,2013-04-02 23:29:00,
2013-04-02 19:45:00,66.9,43.1,29.84,ESE,112,0.0,-999.0,42,-99.99,,,0.00,Acu-Link.com,2013-04-02 23:45:00,
2013-04-02 20:00:00,65.5,42.4,29.85,ENE,67,0.0,-999.0,43,-99.99,,,0.00,Acu-Link.com,2013-04-03 00:00:00,
2013-04-02 20:15:00,63.7,43.1,29.86,ENE,67,0.0,-999.0,47,-99.99,,,0.00,Acu-Link.com,2013-04-03 00:15:00,
2013-04-02 20:30:00,62.4,43.0,29.86,ENE,67,0.0,-999.0,49,-99.99,,,0.00,Acu-Link.com,2013-04-03 00:30:00,
2013-04-02 21:00:00,59.9,43.7,29.85,ENE,67,0.0,-999.0,55,-99.99,,,0.00,Acu-Link.com,2013-04-03 01:00:00,
2013-04-02 21:15:00,58.8,44.5,29.86,WSW,247,0.0,-999.0,59,-99.99,,,0.00,Acu-Link.com,2013-04-03 01:15:00,
2013-04-02 21:30:00,58.1,44.7,29.86,NE,45,0.0,-999.0,61,-99.99,,,0.00,Acu-Link.com,2013-04-03 01:30:00,
2013-04-02 21:45:00,57.4,44.5,29.87,ENE,67,0.0,-999.0,62,-99.99,,,0.00,Acu-Link.com,2013-04-03 01:45:00,
2013-04-02 22:01:00,56.8,44.8,29.87,East,90,0.0,-999.0,64,-99.99,,,0.00,Acu-Link.com,2013-04-03 02:01:00,
2013-04-02 22:16:00,56.3,44.7,29.87,WSW,247,0.0,-999.0,65,-99.99,,,0.00,Acu-Link.com,2013-04-03 02:16:00,
2013-04-02 23:01:00,54.9,45.3,29.89,NNE,22,1.7,-999.0,70,-99.99,,,0.00,Acu-Link.com,2013-04-03 03:01:00,
2013-04-02 23:16:00,54.9,45.7,29.90,WNW,292,0.0,-999.0,71,-99.99,,,0.00,Acu-Link.com,2013-04-03 03:16:00,
2013-04-02 23:46:00,54.7,45.5,29.89,West,270,0.0,-999.0,71,-99.99,,,0.00,Acu-Link.com,2013-04-03 03:46:00,